sensor_id;sensor_type;location;lat;lon;timestamp;P1;durP1;ratioP1;P2;durP2;ratioP2
72920;SDS011;61064;51.654;5.476;2023-12-28T00:00:26;5.13;;;1.40;;
72920;SDS011;61064;51.654;5.476;2023-12-28T00:02:52;5.00;;;1.40;;
72920;SDS011;61064;51.654;5.476;2023-12-28T00:05:17;5.10;;;1.43;;
72920;SDS011;61064;51.654;5.476;2023-12-28T00:07:42;4.90;;;1.33;;
72920;SDS011;61064;51.654;5.476;2023-12-28T00:10:08;5.38;;;1.23;;
72920;SDS011;61064;51.654;5.476;2023-12-28T00:12:33;8.40;;;1.47;;
72920;SDS011;61064;51.654;5.476;2023-12-28T00:14:59;5.23;;;1.60;;
72920;SDS011;61064;51.654;5.476;2023-12-28T00:17:24;6.70;;;1.80;;
72920;SDS011;61064;51.654;5.476;2023-12-28T00:19:49;6.03;;;1.60;;
72920;SDS011;61064;51.654;5.476;2023-12-28T00:22:15;5.47;;;1.40;;
72920;SDS011;61064;51.654;5.476;2023-12-28T00:24:40;6.17;;;1.80;;
72920;SDS011;61064;51.654;5.476;2023-12-28T00:27:05;5.57;;;1.70;;
72920;SDS011;61064;51.654;5.476;2023-12-28T00:29:31;7.17;;;1.40;;
72920;SDS011;61064;51.654;5.476;2023-12-28T00:31:57;5.53;;;1.50;;
72920;SDS011;61064;51.654;5.476;2023-12-28T00:34:25;5.60;;;1.47;;
72920;SDS011;61064;51.654;5.476;2023-12-28T00:36:50;5.90;;;1.40;;
72920;SDS011;61064;51.654;5.476;2023-12-28T00:39:16;5.23;;;1.40;;
72920;SDS011;61064;51.654;5.476;2023-12-28T00:41:41;6.85;;;1.70;;
72920;SDS011;61064;51.654;5.476;2023-12-28T00:44:07;5.83;;;1.70;;
72920;SDS011;61064;51.654;5.476;2023-12-28T00:46:34;5.30;;;1.40;;
72920;SDS011;61064;51.654;5.476;2023-12-28T00:49:00;6.07;;;1.63;;
72920;SDS011;61064;51.654;5.476;2023-12-28T00:51:25;5.10;;;1.40;;
72920;SDS011;61064;51.654;5.476;2023-12-28T00:53:51;5.40;;;1.53;;
72920;SDS011;61064;51.654;5.476;2023-12-28T00:56:16;5.50;;;1.60;;
72920;SDS011;61064;51.654;5.476;2023-12-28T00:58:46;6.13;;;1.70;;
72920;SDS011;61064;51.654;5.476;2023-12-28T01:01:12;5.10;;;1.40;;
72920;SDS011;61064;51.654;5.476;2023-12-28T01:03:37;6.00;;;1.87;;
72920;SDS011;61064;51.654;5.476;2023-12-28T01:06:03;5.87;;;1.70;;
72920;SDS011;61064;51.654;5.476;2023-12-28T01:08:29;7.25;;;1.98;;
72920;SDS011;61064;51.654;5.476;2023-12-28T01:10:55;5.60;;;1.57;;
72920;SDS011;61064;51.654;5.476;2023-12-28T01:13:20;6.03;;;1.47;;
72920;SDS011;61064;51.654;5.476;2023-12-28T01:15:46;6.70;;;1.83;;
72920;SDS011;61064;51.654;5.476;2023-12-28T01:18:11;6.77;;;1.60;;
72920;SDS011;61064;51.654;5.476;2023-12-28T01:20:36;5.40;;;1.60;;
72920;SDS011;61064;51.654;5.476;2023-12-28T01:23:02;6.45;;;1.65;;
72920;SDS011;61064;51.654;5.476;2023-12-28T01:25:28;6.57;;;1.80;;
72920;SDS011;61064;51.654;5.476;2023-12-28T01:27:53;6.23;;;1.80;;
72920;SDS011;61064;51.654;5.476;2023-12-28T01:30:18;6.83;;;1.70;;
72920;SDS011;61064;51.654;5.476;2023-12-28T01:32:44;5.40;;;1.63;;
72920;SDS011;61064;51.654;5.476;2023-12-28T01:35:09;5.20;;;1.47;;
72920;SDS011;61064;51.654;5.476;2023-12-28T01:37:35;6.77;;;1.73;;
72920;SDS011;61064;51.654;5.476;2023-12-28T01:40:00;9.00;;;1.60;;
72920;SDS011;61064;51.654;5.476;2023-12-28T01:42:26;6.88;;;1.85;;
72920;SDS011;61064;51.654;5.476;2023-12-28T01:44:51;5.40;;;1.63;;
72920;SDS011;61064;51.654;5.476;2023-12-28T01:47:17;7.30;;;1.80;;
72920;SDS011;61064;51.654;5.476;2023-12-28T01:49:43;7.03;;;1.70;;
72920;SDS011;61064;51.654;5.476;2023-12-28T01:52:09;6.80;;;1.90;;
72920;SDS011;61064;51.654;5.476;2023-12-28T01:54:35;5.53;;;1.60;;
72920;SDS011;61064;51.654;5.476;2023-12-28T01:57:02;7.40;;;1.67;;
72920;SDS011;61064;51.654;5.476;2023-12-28T01:59:29;7.20;;;1.65;;
72920;SDS011;61064;51.654;5.476;2023-12-28T02:01:55;6.00;;;1.70;;
72920;SDS011;61064;51.654;5.476;2023-12-28T02:04:21;6.25;;;1.50;;
72920;SDS011;61064;51.654;5.476;2023-12-28T02:06:53;7.10;;;1.58;;
72920;SDS011;61064;51.654;5.476;2023-12-28T02:09:21;5.17;;;1.30;;
72920;SDS011;61064;51.654;5.476;2023-12-28T02:11:47;7.77;;;1.50;;
72920;SDS011;61064;51.654;5.476;2023-12-28T02:14:12;6.40;;;1.40;;
72920;SDS011;61064;51.654;5.476;2023-12-28T02:16:39;7.10;;;1.80;;
72920;SDS011;61064;51.654;5.476;2023-12-28T02:19:39;7.78;;;1.48;;
72920;SDS011;61064;51.654;5.476;2023-12-28T02:22:16;8.30;;;1.55;;
72920;SDS011;61064;51.654;5.476;2023-12-28T02:25:15;5.23;;;1.40;;
72920;SDS011;61064;51.654;5.476;2023-12-28T02:27:40;6.90;;;1.60;;
72920;SDS011;61064;51.654;5.476;2023-12-28T02:30:07;5.38;;;1.30;;
72920;SDS011;61064;51.654;5.476;2023-12-28T02:35:19;5.87;;;1.23;;
72920;SDS011;61064;51.654;5.476;2023-12-28T02:37:50;7.07;;;1.40;;
72920;SDS011;61064;51.654;5.476;2023-12-28T02:40:18;6.40;;;1.27;;
72920;SDS011;61064;51.654;5.476;2023-12-28T02:42:44;7.10;;;1.30;;
72920;SDS011;61064;51.654;5.476;2023-12-28T02:45:10;5.53;;;1.30;;
72920;SDS011;61064;51.654;5.476;2023-12-28T02:47:39;6.82;;;1.45;;
72920;SDS011;61064;51.654;5.476;2023-12-28T02:50:04;6.13;;;1.23;;
72920;SDS011;61064;51.654;5.476;2023-12-28T02:52:30;6.63;;;1.30;;
72920;SDS011;61064;51.654;5.476;2023-12-28T02:54:56;5.30;;;1.30;;
72920;SDS011;61064;51.654;5.476;2023-12-28T02:57:21;5.87;;;1.17;;
72920;SDS011;61064;51.654;5.476;2023-12-28T02:59:47;5.33;;;1.10;;
72920;SDS011;61064;51.654;5.476;2023-12-28T03:02:12;6.50;;;1.30;;
72920;SDS011;61064;51.654;5.476;2023-12-28T03:04:38;9.50;;;1.27;;
72920;SDS011;61064;51.654;5.476;2023-12-28T03:07:04;7.03;;;1.10;;
72920;SDS011;61064;51.654;5.476;2023-12-28T03:09:30;6.97;;;1.40;;
72920;SDS011;61064;51.654;5.476;2023-12-28T03:11:55;6.27;;;1.30;;
72920;SDS011;61064;51.654;5.476;2023-12-28T03:14:20;6.30;;;1.40;;
72920;SDS011;61064;51.654;5.476;2023-12-28T03:16:46;6.50;;;1.10;;
72920;SDS011;61064;51.654;5.476;2023-12-28T03:19:11;8.10;;;1.47;;
72920;SDS011;61064;51.654;5.476;2023-12-28T03:21:40;6.38;;;1.30;;
72920;SDS011;61064;51.654;5.476;2023-12-28T03:24:08;8.33;;;2.13;;
72920;SDS011;61064;51.654;5.476;2023-12-28T03:26:37;6.95;;;1.50;;
72920;SDS011;61064;51.654;5.476;2023-12-28T03:29:06;4.50;;;0.90;;
72920;SDS011;61064;51.654;5.476;2023-12-28T03:31:32;5.57;;;1.30;;
72920;SDS011;61064;51.654;5.476;2023-12-28T03:33:57;8.43;;;1.40;;
72920;SDS011;61064;51.654;5.476;2023-12-28T03:36:24;4.45;;;1.13;;
72920;SDS011;61064;51.654;5.476;2023-12-28T03:38:49;5.53;;;1.00;;
72920;SDS011;61064;51.654;5.476;2023-12-28T03:41:18;9.00;;;1.60;;
72920;SDS011;61064;51.654;5.476;2023-12-28T03:43:44;11.38;;;1.30;;
72920;SDS011;61064;51.654;5.476;2023-12-28T03:46:10;7.63;;;1.40;;
72920;SDS011;61064;51.654;5.476;2023-12-28T03:48:35;7.83;;;1.20;;
72920;SDS011;61064;51.654;5.476;2023-12-28T03:51:01;6.00;;;1.13;;
72920;SDS011;61064;51.654;5.476;2023-12-28T03:53:27;8.73;;;1.10;;
72920;SDS011;61064;51.654;5.476;2023-12-28T03:55:53;5.63;;;0.90;;
72920;SDS011;61064;51.654;5.476;2023-12-28T03:58:18;8.63;;;1.17;;
72920;SDS011;61064;51.654;5.476;2023-12-28T04:00:43;8.53;;;1.20;;
72920;SDS011;61064;51.654;5.476;2023-12-28T04:03:09;8.67;;;1.30;;
72920;SDS011;61064;51.654;5.476;2023-12-28T04:05:34;7.90;;;1.07;;
72920;SDS011;61064;51.654;5.476;2023-12-28T04:07:59;6.20;;;1.00;;
72920;SDS011;61064;51.654;5.476;2023-12-28T04:10:29;8.07;;;1.20;;
72920;SDS011;61064;51.654;5.476;2023-12-28T04:12:57;11.07;;;1.20;;
72920;SDS011;61064;51.654;5.476;2023-12-28T04:15:23;10.05;;;1.23;;
72920;SDS011;61064;51.654;5.476;2023-12-28T04:17:49;9.90;;;1.10;;
72920;SDS011;61064;51.654;5.476;2023-12-28T04:20:14;6.87;;;1.10;;
72920;SDS011;61064;51.654;5.476;2023-12-28T04:22:39;7.30;;;1.40;;
72920;SDS011;61064;51.654;5.476;2023-12-28T04:25:05;7.63;;;1.25;;
72920;SDS011;61064;51.654;5.476;2023-12-28T04:27:31;6.07;;;0.93;;
72920;SDS011;61064;51.654;5.476;2023-12-28T04:29:56;7.77;;;1.07;;
72920;SDS011;61064;51.654;5.476;2023-12-28T04:32:22;11.85;;;1.40;;
72920;SDS011;61064;51.654;5.476;2023-12-28T04:34:49;5.50;;;1.30;;
72920;SDS011;61064;51.654;5.476;2023-12-28T04:37:14;6.25;;;1.13;;
72920;SDS011;61064;51.654;5.476;2023-12-28T04:39:40;8.33;;;1.30;;
72920;SDS011;61064;51.654;5.476;2023-12-28T04:42:05;7.63;;;1.17;;
72920;SDS011;61064;51.654;5.476;2023-12-28T04:44:30;7.17;;;1.20;;
72920;SDS011;61064;51.654;5.476;2023-12-28T04:46:56;6.80;;;1.10;;
72920;SDS011;61064;51.654;5.476;2023-12-28T04:49:21;5.87;;;1.10;;
72920;SDS011;61064;51.654;5.476;2023-12-28T04:51:46;9.37;;;1.07;;
72920;SDS011;61064;51.654;5.476;2023-12-28T04:54:12;9.70;;;1.20;;
72920;SDS011;61064;51.654;5.476;2023-12-28T04:56:37;8.57;;;1.00;;
72920;SDS011;61064;51.654;5.476;2023-12-28T04:59:03;8.47;;;1.17;;
72920;SDS011;61064;51.654;5.476;2023-12-28T05:01:28;7.00;;;1.30;;
72920;SDS011;61064;51.654;5.476;2023-12-28T05:03:56;8.70;;;1.05;;
72920;SDS011;61064;51.654;5.476;2023-12-28T05:06:22;9.73;;;1.20;;
72920;SDS011;61064;51.654;5.476;2023-12-28T05:08:47;8.40;;;1.27;;
72920;SDS011;61064;51.654;5.476;2023-12-28T05:11:12;9.03;;;1.40;;
72920;SDS011;61064;51.654;5.476;2023-12-28T05:13:38;8.33;;;0.97;;
72920;SDS011;61064;51.654;5.476;2023-12-28T05:16:03;6.50;;;1.10;;
72920;SDS011;61064;51.654;5.476;2023-12-28T05:18:29;9.63;;;1.30;;
72920;SDS011;61064;51.654;5.476;2023-12-28T05:20:54;9.70;;;1.30;;
72920;SDS011;61064;51.654;5.476;2023-12-28T05:23:20;8.10;;;1.20;;
72920;SDS011;61064;51.654;5.476;2023-12-28T05:25:45;11.83;;;1.30;;
72920;SDS011;61064;51.654;5.476;2023-12-28T05:28:13;7.93;;;1.10;;
72920;SDS011;61064;51.654;5.476;2023-12-28T05:30:39;9.07;;;1.05;;
72920;SDS011;61064;51.654;5.476;2023-12-28T05:33:04;7.37;;;0.87;;
72920;SDS011;61064;51.654;5.476;2023-12-28T05:35:32;11.90;;;1.17;;
72920;SDS011;61064;51.654;5.476;2023-12-28T05:37:58;9.20;;;1.05;;
72920;SDS011;61064;51.654;5.476;2023-12-28T05:40:23;6.87;;;0.93;;
72920;SDS011;61064;51.654;5.476;2023-12-28T05:42:49;9.90;;;1.10;;
72920;SDS011;61064;51.654;5.476;2023-12-28T05:45:14;12.20;;;1.10;;
72920;SDS011;61064;51.654;5.476;2023-12-28T05:47:39;8.98;;;1.13;;
72920;SDS011;61064;51.654;5.476;2023-12-28T05:50:05;11.07;;;1.43;;
72920;SDS011;61064;51.654;5.476;2023-12-28T05:52:30;9.63;;;1.00;;
72920;SDS011;61064;51.654;5.476;2023-12-28T05:54:56;7.73;;;1.00;;
72920;SDS011;61064;51.654;5.476;2023-12-28T05:57:24;9.10;;;1.02;;
72920;SDS011;61064;51.654;5.476;2023-12-28T05:59:51;10.17;;;1.43;;
72920;SDS011;61064;51.654;5.476;2023-12-28T06:02:17;8.53;;;1.10;;
72920;SDS011;61064;51.654;5.476;2023-12-28T06:04:45;9.00;;;1.40;;
72920;SDS011;61064;51.654;5.476;2023-12-28T06:07:10;8.65;;;0.90;;
72920;SDS011;61064;51.654;5.476;2023-12-28T06:09:36;10.00;;;1.20;;
72920;SDS011;61064;51.654;5.476;2023-12-28T06:12:03;7.78;;;1.15;;
72920;SDS011;61064;51.654;5.476;2023-12-28T06:14:32;10.73;;;1.40;;
72920;SDS011;61064;51.654;5.476;2023-12-28T06:16:57;9.60;;;0.90;;
72920;SDS011;61064;51.654;5.476;2023-12-28T06:19:23;10.20;;;1.10;;
72920;SDS011;61064;51.654;5.476;2023-12-28T06:21:48;12.00;;;1.20;;
72920;SDS011;61064;51.654;5.476;2023-12-28T06:24:14;10.15;;;1.00;;
72920;SDS011;61064;51.654;5.476;2023-12-28T06:26:43;13.77;;;1.53;;
72920;SDS011;61064;51.654;5.476;2023-12-28T06:29:09;11.43;;;1.23;;
72920;SDS011;61064;51.654;5.476;2023-12-28T06:31:35;12.53;;;1.40;;
72920;SDS011;61064;51.654;5.476;2023-12-28T06:34:10;9.93;;;1.30;;
72920;SDS011;61064;51.654;5.476;2023-12-28T06:36:35;10.95;;;1.15;;
72920;SDS011;61064;51.654;5.476;2023-12-28T06:39:01;10.43;;;1.40;;
72920;SDS011;61064;51.654;5.476;2023-12-28T06:41:26;9.07;;;1.00;;
72920;SDS011;61064;51.654;5.476;2023-12-28T06:43:52;23.60;;;2.63;;
72920;SDS011;61064;51.654;5.476;2023-12-28T06:46:18;10.10;;;1.30;;
72920;SDS011;61064;51.654;5.476;2023-12-28T06:48:46;10.85;;;1.33;;
72920;SDS011;61064;51.654;5.476;2023-12-28T06:51:18;10.98;;;1.20;;
72920;SDS011;61064;51.654;5.476;2023-12-28T06:53:45;10.95;;;1.40;;
72920;SDS011;61064;51.654;5.476;2023-12-28T06:56:10;10.83;;;1.07;;
72920;SDS011;61064;51.654;5.476;2023-12-28T06:58:36;10.90;;;1.10;;
72920;SDS011;61064;51.654;5.476;2023-12-28T07:01:04;7.80;;;1.07;;
72920;SDS011;61064;51.654;5.476;2023-12-28T07:03:30;10.60;;;1.43;;
72920;SDS011;61064;51.654;5.476;2023-12-28T07:05:57;12.43;;;1.55;;
72920;SDS011;61064;51.654;5.476;2023-12-28T07:08:23;12.82;;;1.33;;
72920;SDS011;61064;51.654;5.476;2023-12-28T07:10:49;12.77;;;1.80;;
72920;SDS011;61064;51.654;5.476;2023-12-28T07:13:14;11.37;;;1.17;;
72920;SDS011;61064;51.654;5.476;2023-12-28T07:15:42;15.13;;;1.20;;
72920;SDS011;61064;51.654;5.476;2023-12-28T07:18:08;9.98;;;1.10;;
72920;SDS011;61064;51.654;5.476;2023-12-28T07:20:57;15.10;;;1.83;;
72920;SDS011;61064;51.654;5.476;2023-12-28T07:23:22;12.07;;;1.20;;
72920;SDS011;61064;51.654;5.476;2023-12-28T07:25:47;12.90;;;1.30;;
72920;SDS011;61064;51.654;5.476;2023-12-28T07:28:14;11.15;;;1.33;;
72920;SDS011;61064;51.654;5.476;2023-12-28T07:30:39;12.37;;;1.50;;
72920;SDS011;61064;51.654;5.476;2023-12-28T07:33:06;13.05;;;1.20;;
72920;SDS011;61064;51.654;5.476;2023-12-28T07:35:31;14.13;;;1.13;;
72920;SDS011;61064;51.654;5.476;2023-12-28T07:37:57;12.73;;;1.23;;
72920;SDS011;61064;51.654;5.476;2023-12-28T07:40:22;14.05;;;1.40;;
72920;SDS011;61064;51.654;5.476;2023-12-28T07:42:47;10.23;;;1.30;;
72920;SDS011;61064;51.654;5.476;2023-12-28T07:45:13;11.57;;;1.13;;
72920;SDS011;61064;51.654;5.476;2023-12-28T07:47:38;11.17;;;1.30;;
72920;SDS011;61064;51.654;5.476;2023-12-28T07:50:04;10.77;;;1.33;;
72920;SDS011;61064;51.654;5.476;2023-12-28T07:52:29;10.88;;;1.30;;
72920;SDS011;61064;51.654;5.476;2023-12-28T07:54:55;15.10;;;1.30;;
72920;SDS011;61064;51.654;5.476;2023-12-28T07:57:20;11.47;;;1.67;;
72920;SDS011;61064;51.654;5.476;2023-12-28T07:59:46;10.98;;;1.55;;
72920;SDS011;61064;51.654;5.476;2023-12-28T08:02:11;13.00;;;1.30;;
72920;SDS011;61064;51.654;5.476;2023-12-28T08:04:36;13.90;;;1.77;;
72920;SDS011;61064;51.654;5.476;2023-12-28T08:07:02;12.70;;;1.10;;
72920;SDS011;61064;51.654;5.476;2023-12-28T08:09:27;10.40;;;1.30;;
72920;SDS011;61064;51.654;5.476;2023-12-28T08:11:52;14.90;;;1.40;;
72920;SDS011;61064;51.654;5.476;2023-12-28T08:14:18;13.13;;;1.40;;
72920;SDS011;61064;51.654;5.476;2023-12-28T08:16:44;10.87;;;1.20;;
72920;SDS011;61064;51.654;5.476;2023-12-28T08:19:09;13.35;;;1.38;;
72920;SDS011;61064;51.654;5.476;2023-12-28T08:21:34;12.63;;;1.57;;
72920;SDS011;61064;51.654;5.476;2023-12-28T08:24:00;10.27;;;0.87;;
72920;SDS011;61064;51.654;5.476;2023-12-28T08:26:25;12.03;;;1.63;;
72920;SDS011;61064;51.654;5.476;2023-12-28T08:28:51;11.70;;;1.20;;
72920;SDS011;61064;51.654;5.476;2023-12-28T08:31:16;10.27;;;1.43;;
72920;SDS011;61064;51.654;5.476;2023-12-28T08:33:43;17.30;;;1.60;;
72920;SDS011;61064;51.654;5.476;2023-12-28T08:36:08;14.05;;;1.50;;
72920;SDS011;61064;51.654;5.476;2023-12-28T08:38:34;14.27;;;1.57;;
72920;SDS011;61064;51.654;5.476;2023-12-28T08:40:59;10.07;;;1.10;;
72920;SDS011;61064;51.654;5.476;2023-12-28T08:43:25;17.20;;;1.97;;
72920;SDS011;61064;51.654;5.476;2023-12-28T08:45:50;11.43;;;1.20;;
72920;SDS011;61064;51.654;5.476;2023-12-28T08:48:16;11.57;;;1.10;;
72920;SDS011;61064;51.654;5.476;2023-12-28T08:50:41;13.00;;;1.50;;
72920;SDS011;61064;51.654;5.476;2023-12-28T08:53:06;13.47;;;1.67;;
72920;SDS011;61064;51.654;5.476;2023-12-28T08:55:32;12.80;;;1.73;;
72920;SDS011;61064;51.654;5.476;2023-12-28T08:57:58;12.00;;;1.10;;
72920;SDS011;61064;51.654;5.476;2023-12-28T09:00:24;13.75;;;1.25;;
72920;SDS011;61064;51.654;5.476;2023-12-28T09:02:49;10.60;;;1.40;;
72920;SDS011;61064;51.654;5.476;2023-12-28T09:05:15;12.27;;;1.58;;
72920;SDS011;61064;51.654;5.476;2023-12-28T09:07:40;14.30;;;1.57;;
72920;SDS011;61064;51.654;5.476;2023-12-28T09:10:11;14.43;;;1.70;;
72920;SDS011;61064;51.654;5.476;2023-12-28T09:12:37;10.18;;;1.60;;
72920;SDS011;61064;51.654;5.476;2023-12-28T09:15:04;12.20;;;1.73;;
72920;SDS011;61064;51.654;5.476;2023-12-28T09:17:30;10.63;;;1.30;;
72920;SDS011;61064;51.654;5.476;2023-12-28T09:19:56;14.03;;;2.10;;
72920;SDS011;61064;51.654;5.476;2023-12-28T09:22:23;10.05;;;1.27;;
72920;SDS011;61064;51.654;5.476;2023-12-28T09:24:48;10.53;;;1.30;;
72920;SDS011;61064;51.654;5.476;2023-12-28T09:27:13;12.30;;;1.50;;
72920;SDS011;61064;51.654;5.476;2023-12-28T09:29:39;11.53;;;1.30;;
72920;SDS011;61064;51.654;5.476;2023-12-28T09:32:07;15.77;;;1.70;;
72920;SDS011;61064;51.654;5.476;2023-12-28T09:34:33;10.27;;;1.00;;
72920;SDS011;61064;51.654;5.476;2023-12-28T09:36:58;12.27;;;1.20;;
72920;SDS011;61064;51.654;5.476;2023-12-28T09:39:23;11.10;;;1.17;;
72920;SDS011;61064;51.654;5.476;2023-12-28T09:41:53;8.33;;;1.03;;
72920;SDS011;61064;51.654;5.476;2023-12-28T09:44:23;11.43;;;1.30;;
72920;SDS011;61064;51.654;5.476;2023-12-28T09:46:50;17.70;;;1.48;;
72920;SDS011;61064;51.654;5.476;2023-12-28T09:49:18;12.23;;;1.48;;
72920;SDS011;61064;51.654;5.476;2023-12-28T09:51:46;11.95;;;1.35;;
72920;SDS011;61064;51.654;5.476;2023-12-28T09:54:11;11.00;;;1.43;;
72920;SDS011;61064;51.654;5.476;2023-12-28T09:56:38;10.80;;;1.10;;
72920;SDS011;61064;51.654;5.476;2023-12-28T09:59:04;12.40;;;1.40;;
72920;SDS011;61064;51.654;5.476;2023-12-28T10:01:32;11.45;;;1.20;;
72920;SDS011;61064;51.654;5.476;2023-12-28T10:03:59;17.73;;;1.50;;
72920;SDS011;61064;51.654;5.476;2023-12-28T10:06:24;16.85;;;1.70;;
72920;SDS011;61064;51.654;5.476;2023-12-28T10:08:50;13.33;;;1.70;;
72920;SDS011;61064;51.654;5.476;2023-12-28T10:11:16;8.90;;;0.80;;
72920;SDS011;61064;51.654;5.476;2023-12-28T10:13:43;14.52;;;1.48;;
72920;SDS011;61064;51.654;5.476;2023-12-28T10:16:09;9.63;;;1.03;;
72920;SDS011;61064;51.654;5.476;2023-12-28T10:18:36;12.90;;;1.10;;
72920;SDS011;61064;51.654;5.476;2023-12-28T10:21:02;14.32;;;1.52;;
72920;SDS011;61064;51.654;5.476;2023-12-28T10:23:27;15.87;;;1.17;;
72920;SDS011;61064;51.654;5.476;2023-12-28T10:25:55;11.67;;;1.53;;
72920;SDS011;61064;51.654;5.476;2023-12-28T10:28:21;8.90;;;1.05;;
72920;SDS011;61064;51.654;5.476;2023-12-28T10:30:46;11.13;;;1.10;;
72920;SDS011;61064;51.654;5.476;2023-12-28T10:33:13;12.40;;;1.47;;
72920;SDS011;61064;51.654;5.476;2023-12-28T10:35:39;14.88;;;1.67;;
72920;SDS011;61064;51.654;5.476;2023-12-28T10:38:04;12.03;;;1.40;;
72920;SDS011;61064;51.654;5.476;2023-12-28T10:40:32;12.17;;;1.20;;
72920;SDS011;61064;51.654;5.476;2023-12-28T10:42:58;13.80;;;1.20;;
72920;SDS011;61064;51.654;5.476;2023-12-28T10:45:34;10.37;;;1.10;;
72920;SDS011;61064;51.654;5.476;2023-12-28T10:48:06;11.23;;;1.40;;
72920;SDS011;61064;51.654;5.476;2023-12-28T10:56:35;14.02;;;1.67;;
72920;SDS011;61064;51.654;5.476;2023-12-28T11:01:39;13.48;;;1.25;;
72920;SDS011;61064;51.654;5.476;2023-12-28T11:04:07;16.60;;;2.80;;
72920;SDS011;61064;51.654;5.476;2023-12-28T11:06:51;16.85;;;2.20;;
72920;SDS011;61064;51.654;5.476;2023-12-28T11:09:18;14.10;;;1.60;;
72920;SDS011;61064;51.654;5.476;2023-12-28T11:11:46;16.20;;;1.90;;
72920;SDS011;61064;51.654;5.476;2023-12-28T11:14:14;12.38;;;1.60;;
72920;SDS011;61064;51.654;5.476;2023-12-28T11:16:41;15.35;;;1.63;;
72920;SDS011;61064;51.654;5.476;2023-12-28T11:19:08;15.23;;;1.20;;
72920;SDS011;61064;51.654;5.476;2023-12-28T11:21:34;13.43;;;1.63;;
72920;SDS011;61064;51.654;5.476;2023-12-28T11:24:00;13.17;;;1.30;;
72920;SDS011;61064;51.654;5.476;2023-12-28T11:26:27;13.50;;;1.98;;
72920;SDS011;61064;51.654;5.476;2023-12-28T11:29:02;15.05;;;1.77;;
72920;SDS011;61064;51.654;5.476;2023-12-28T11:31:32;13.50;;;1.90;;
72920;SDS011;61064;51.654;5.476;2023-12-28T11:34:01;12.50;;;1.40;;
72920;SDS011;61064;51.654;5.476;2023-12-28T11:36:35;17.03;;;1.80;;
72920;SDS011;61064;51.654;5.476;2023-12-28T11:39:06;11.38;;;1.30;;
72920;SDS011;61064;51.654;5.476;2023-12-28T11:41:32;13.30;;;1.40;;
72920;SDS011;61064;51.654;5.476;2023-12-28T11:44:02;12.33;;;1.30;;
72920;SDS011;61064;51.654;5.476;2023-12-28T11:46:29;12.20;;;1.40;;
72920;SDS011;61064;51.654;5.476;2023-12-28T11:49:08;17.43;;;1.40;;
72920;SDS011;61064;51.654;5.476;2023-12-28T11:51:35;18.45;;;2.08;;
72920;SDS011;61064;51.654;5.476;2023-12-28T11:54:03;14.93;;;1.85;;
72920;SDS011;61064;51.654;5.476;2023-12-28T11:56:32;16.03;;;1.67;;
72920;SDS011;61064;51.654;5.476;2023-12-28T11:59:00;11.73;;;1.30;;
72920;SDS011;61064;51.654;5.476;2023-12-28T12:01:26;13.20;;;1.20;;
72920;SDS011;61064;51.654;5.476;2023-12-28T12:03:51;12.90;;;1.40;;
72920;SDS011;61064;51.654;5.476;2023-12-28T12:06:16;17.53;;;1.53;;
72920;SDS011;61064;51.654;5.476;2023-12-28T12:08:48;14.57;;;1.50;;
72920;SDS011;61064;51.654;5.476;2023-12-28T12:11:14;16.63;;;1.60;;
72920;SDS011;61064;51.654;5.476;2023-12-28T12:13:42;12.90;;;1.30;;
72920;SDS011;61064;51.654;5.476;2023-12-28T12:16:08;16.60;;;1.42;;
72920;SDS011;61064;51.654;5.476;2023-12-28T12:18:33;10.53;;;1.10;;
72920;SDS011;61064;51.654;5.476;2023-12-28T12:20:59;17.70;;;1.83;;
72920;SDS011;61064;51.654;5.476;2023-12-28T12:23:24;19.87;;;2.03;;
72920;SDS011;61064;51.654;5.476;2023-12-28T12:25:50;13.93;;;1.30;;
72920;SDS011;61064;51.654;5.476;2023-12-28T12:28:16;14.90;;;1.97;;
72920;SDS011;61064;51.654;5.476;2023-12-28T12:30:49;15.02;;;1.40;;
72920;SDS011;61064;51.654;5.476;2023-12-28T12:33:27;13.27;;;1.27;;
72920;SDS011;61064;51.654;5.476;2023-12-28T12:35:53;17.03;;;2.13;;
72920;SDS011;61064;51.654;5.476;2023-12-28T12:38:18;12.00;;;1.20;;
72920;SDS011;61064;51.654;5.476;2023-12-28T12:40:44;21.67;;;2.13;;
72920;SDS011;61064;51.654;5.476;2023-12-28T12:43:10;13.50;;;1.48;;
72920;SDS011;61064;51.654;5.476;2023-12-28T12:45:35;12.53;;;1.50;;
72920;SDS011;61064;51.654;5.476;2023-12-28T12:48:04;18.97;;;1.40;;
72920;SDS011;61064;51.654;5.476;2023-12-28T12:50:31;14.40;;;1.80;;
72920;SDS011;61064;51.654;5.476;2023-12-28T12:52:58;12.05;;;1.10;;
72920;SDS011;61064;51.654;5.476;2023-12-28T12:55:24;10.25;;;1.20;;
72920;SDS011;61064;51.654;5.476;2023-12-28T12:57:50;14.82;;;1.48;;
72920;SDS011;61064;51.654;5.476;2023-12-28T13:00:16;12.83;;;1.50;;
72920;SDS011;61064;51.654;5.476;2023-12-28T13:02:41;12.93;;;1.30;;
72920;SDS011;61064;51.654;5.476;2023-12-28T13:05:07;15.10;;;1.50;;
72920;SDS011;61064;51.654;5.476;2023-12-28T13:07:33;15.35;;;1.73;;
72920;SDS011;61064;51.654;5.476;2023-12-28T13:09:58;15.03;;;1.40;;
72920;SDS011;61064;51.654;5.476;2023-12-28T13:12:24;11.10;;;1.10;;
72920;SDS011;61064;51.654;5.476;2023-12-28T13:14:50;14.70;;;1.20;;
72920;SDS011;61064;51.654;5.476;2023-12-28T13:17:15;18.73;;;1.67;;
72920;SDS011;61064;51.654;5.476;2023-12-28T13:19:41;16.55;;;1.40;;
72920;SDS011;61064;51.654;5.476;2023-12-28T13:22:07;15.50;;;2.23;;
72920;SDS011;61064;51.654;5.476;2023-12-28T13:24:32;13.63;;;1.77;;
72920;SDS011;61064;51.654;5.476;2023-12-28T13:26:58;13.97;;;1.90;;
72920;SDS011;61064;51.654;5.476;2023-12-28T13:29:26;16.13;;;2.58;;
72920;SDS011;61064;51.654;5.476;2023-12-28T13:31:51;12.67;;;1.40;;
72920;SDS011;61064;51.654;5.476;2023-12-28T13:34:20;18.60;;;1.83;;
72920;SDS011;61064;51.654;5.476;2023-12-28T13:36:45;15.50;;;1.50;;
72920;SDS011;61064;51.654;5.476;2023-12-28T13:39:11;14.37;;;1.50;;
72920;SDS011;61064;51.654;5.476;2023-12-28T13:41:39;13.32;;;1.85;;
72920;SDS011;61064;51.654;5.476;2023-12-28T13:44:05;14.47;;;1.30;;
72920;SDS011;61064;51.654;5.476;2023-12-28T13:46:38;15.68;;;1.33;;
72920;SDS011;61064;51.654;5.476;2023-12-28T13:49:04;15.07;;;1.77;;
72920;SDS011;61064;51.654;5.476;2023-12-28T13:51:31;13.13;;;1.40;;
72920;SDS011;61064;51.654;5.476;2023-12-28T13:53:57;13.17;;;1.60;;
72920;SDS011;61064;51.654;5.476;2023-12-28T13:56:22;17.70;;;1.43;;
72920;SDS011;61064;51.654;5.476;2023-12-28T13:58:47;15.13;;;1.83;;
72920;SDS011;61064;51.654;5.476;2023-12-28T14:01:13;13.30;;;1.60;;
72920;SDS011;61064;51.654;5.476;2023-12-28T14:03:38;13.73;;;1.77;;
72920;SDS011;61064;51.654;5.476;2023-12-28T14:06:04;14.25;;;1.40;;
72920;SDS011;61064;51.654;5.476;2023-12-28T14:08:30;12.83;;;1.77;;
72920;SDS011;61064;51.654;5.476;2023-12-28T14:10:55;11.00;;;1.10;;
72920;SDS011;61064;51.654;5.476;2023-12-28T14:13:20;19.13;;;1.80;;
72920;SDS011;61064;51.654;5.476;2023-12-28T14:15:46;12.90;;;1.42;;
72920;SDS011;61064;51.654;5.476;2023-12-28T14:18:12;15.17;;;2.67;;
72920;SDS011;61064;51.654;5.476;2023-12-28T14:20:37;17.08;;;1.65;;
72920;SDS011;61064;51.654;5.476;2023-12-28T14:23:02;15.17;;;1.43;;
72920;SDS011;61064;51.654;5.476;2023-12-28T14:25:28;12.80;;;1.50;;
72920;SDS011;61064;51.654;5.476;2023-12-28T14:27:54;15.10;;;1.95;;
72920;SDS011;61064;51.654;5.476;2023-12-28T14:30:19;11.77;;;1.60;;
72920;SDS011;61064;51.654;5.476;2023-12-28T14:32:45;10.30;;;1.10;;
72920;SDS011;61064;51.654;5.476;2023-12-28T14:35:11;11.30;;;1.27;;
72920;SDS011;61064;51.654;5.476;2023-12-28T14:37:41;9.02;;;1.00;;
72920;SDS011;61064;51.654;5.476;2023-12-28T14:40:06;15.60;;;1.33;;
72920;SDS011;61064;51.654;5.476;2023-12-28T14:42:32;14.65;;;1.50;;
72920;SDS011;61064;51.654;5.476;2023-12-28T14:44:58;13.07;;;1.38;;
72920;SDS011;61064;51.654;5.476;2023-12-28T14:47:26;16.23;;;2.17;;